createdAt,value
2019-01-18T00:01:38.699Z,1.73
2019-01-18T00:04:08.006Z,1.68
2019-01-18T00:06:37.290Z,1.72
2019-01-18T00:09:08.524Z,1.68
2019-01-18T00:11:37.825Z,1.70
2019-01-18T00:14:07.136Z,1.46
2019-01-18T00:16:36.917Z,1.54
2019-01-18T00:19:08.013Z,1.66
2019-01-18T00:21:37.334Z,1.63
2019-01-18T00:24:06.738Z,1.56
2019-01-18T00:26:36.071Z,1.52
2019-01-18T00:29:05.336Z,1.50
2019-01-18T00:31:34.606Z,1.48
2019-01-18T00:34:03.973Z,1.44
2019-01-18T00:36:33.257Z,1.29
2019-01-18T00:39:02.511Z,1.39
2019-01-18T00:41:31.790Z,1.31
2019-01-18T00:44:01.090Z,1.15
2019-01-18T00:46:30.342Z,1.25
2019-01-18T00:48:59.712Z,1.27
2019-01-18T00:51:28.957Z,1.26
2019-01-18T00:53:58.240Z,1.27
2019-01-18T00:56:27.520Z,1.17
2019-01-18T00:58:56.821Z,1.07
2019-01-18T01:01:26.082Z,1.11
2019-01-18T01:03:55.345Z,1.19
2019-01-18T01:06:24.619Z,1.16
2019-01-18T01:08:54.899Z,1.26
2019-01-18T01:11:24.377Z,1.33
2019-01-18T01:13:53.714Z,1.37
2019-01-18T01:16:23.002Z,1.42
2019-01-18T01:18:52.270Z,1.46
2019-01-18T01:21:21.662Z,1.46
2019-01-18T01:23:50.929Z,1.42
2019-01-18T01:26:20.200Z,1.39
2019-01-18T01:28:49.470Z,1.33
2019-01-18T01:31:18.730Z,1.31
2019-01-18T01:33:48.023Z,1.37
2019-01-18T01:36:17.297Z,1.44
2019-01-18T01:38:46.558Z,1.30
2019-01-18T01:41:15.835Z,1.35
2019-01-18T01:43:45.094Z,1.37
2019-01-18T01:46:14.367Z,1.49
2019-01-18T01:48:43.619Z,1.48
2019-01-18T01:51:12.891Z,1.55
2019-01-18T01:53:43.258Z,1.56
2019-01-18T01:56:12.542Z,1.47
2019-01-18T01:58:41.795Z,1.44
2019-01-18T02:01:11.053Z,1.44
2019-01-18T02:03:40.318Z,1.44
2019-01-18T02:06:09.579Z,1.48
2019-01-18T02:08:38.881Z,1.42
2019-01-18T02:11:08.138Z,1.34
2019-01-18T02:13:39.221Z,1.50
2019-01-18T02:16:08.495Z,1.38
2019-01-18T02:18:37.752Z,1.38
2019-01-18T02:21:07.042Z,1.43
2019-01-18T02:23:36.337Z,1.36
2019-01-18T02:26:05.956Z,1.44
2019-01-18T02:28:35.217Z,1.40
2019-01-18T02:31:04.485Z,1.40
2019-01-18T02:33:33.761Z,1.31
2019-01-18T02:36:03.045Z,1.38
2019-01-18T02:38:32.298Z,1.36
2019-01-18T02:41:01.557Z,1.42
2019-01-18T02:43:30.837Z,1.39
2019-01-18T02:46:00.103Z,1.24
2019-01-18T02:48:30.575Z,1.27
2019-01-18T02:50:59.835Z,1.25
2019-01-18T02:53:29.109Z,1.27
2019-01-18T02:55:58.371Z,1.39
2019-01-18T02:58:28.649Z,1.35
2019-01-18T03:00:57.925Z,1.30
2019-01-18T03:03:27.180Z,1.36
2019-01-18T03:05:56.490Z,1.31
2019-01-18T03:08:26.844Z,1.32
2019-01-18T03:10:56.138Z,1.37
2019-01-18T03:13:25.413Z,1.39
2019-01-18T03:15:54.720Z,1.39
2019-01-18T03:18:23.991Z,1.40
2019-01-18T03:20:53.267Z,1.35
2019-01-18T03:23:22.516Z,1.47
2019-01-18T03:25:51.786Z,1.36
2019-01-18T03:28:21.125Z,1.35
2019-01-18T03:30:50.379Z,1.31
2019-01-18T03:33:19.644Z,1.31
2019-01-18T03:35:48.889Z,1.24
2019-01-18T03:38:18.166Z,1.30
2019-01-18T03:40:47.413Z,1.26
2019-01-18T03:43:16.686Z,1.31
2019-01-18T03:45:45.951Z,1.26
2019-01-18T03:48:15.265Z,1.23
2019-01-18T03:50:44.519Z,1.25
2019-01-18T03:53:13.770Z,1.35
2019-01-18T03:55:43.051Z,1.22
2019-01-18T03:58:12.315Z,1.25
2019-01-18T04:00:41.601Z,1.24
2019-01-18T04:03:10.859Z,1.23
2019-01-18T04:05:40.155Z,1.19
2019-01-18T04:08:09.421Z,1.16
2019-01-18T04:10:38.691Z,1.18
2019-01-18T04:13:07.967Z,1.09
2019-01-18T04:15:37.239Z,1.02
2019-01-18T04:18:06.738Z,1.10
2019-01-18T04:20:36.377Z,1.14
2019-01-18T04:23:05.732Z,1.13
2019-01-18T04:25:35.225Z,1.10
2019-01-18T04:28:04.702Z,1.08
2019-01-18T04:30:33.956Z,1.20
2019-01-18T04:33:03.268Z,1.09
2019-01-18T04:35:32.525Z,1.16
2019-01-18T04:38:01.795Z,1.11
2019-01-18T04:40:31.127Z,1.07
2019-01-18T04:43:00.337Z,1.10
2019-01-18T04:45:29.677Z,1.06
2019-01-18T04:47:58.953Z,1.09
2019-01-18T04:50:29.226Z,1.14
2019-01-18T04:52:58.525Z,1.08
2019-01-18T04:55:27.774Z,1.06
2019-01-18T04:57:57.046Z,1.05
2019-01-18T05:00:28.312Z,0.94
2019-01-18T05:02:57.606Z,1.07
2019-01-18T05:05:27.175Z,1.14
2019-01-18T05:07:56.440Z,1.12
2019-01-18T05:10:27.518Z,1.11
2019-01-18T05:12:56.837Z,1.07
2019-01-18T05:15:31.401Z,0.99
2019-01-18T05:18:00.659Z,1.06
2019-01-18T05:20:30.014Z,0.90
2019-01-18T05:22:59.282Z,0.92
2019-01-18T05:25:28.556Z,0.93
2019-01-18T05:27:57.842Z,0.93
2019-01-18T05:30:28.830Z,0.89
2019-01-18T05:32:58.185Z,0.98
2019-01-18T05:35:27.566Z,0.94
2019-01-18T05:37:57.046Z,0.98
2019-01-18T05:40:26.334Z,0.95
2019-01-18T05:42:55.587Z,1.01
2019-01-18T05:45:24.878Z,0.97
2019-01-18T05:47:54.200Z,1.07
2019-01-18T05:50:25.722Z,1.06
2019-01-18T05:52:56.467Z,1.01
2019-01-18T05:55:25.727Z,0.94
2019-01-18T05:57:56.958Z,0.96
2019-01-18T06:00:46.939Z,0.94
2019-01-18T06:03:16.259Z,1.01
2019-01-18T06:05:47.875Z,0.97
2019-01-18T06:08:17.325Z,0.93
2019-01-18T06:10:49.163Z,0.92
2019-01-18T06:13:19.941Z,0.92
2019-01-18T06:15:50.329Z,0.90
2019-01-18T06:18:21.556Z,0.93
2019-01-18T06:20:51.255Z,0.90
2019-01-18T06:23:20.763Z,0.77
2019-01-18T06:25:50.501Z,0.86
2019-01-18T06:28:20.154Z,0.87
2019-01-18T06:30:49.690Z,0.88
2019-01-18T06:33:19.177Z,0.82
2019-01-18T06:35:48.847Z,0.79
2019-01-18T06:38:18.395Z,0.80
2019-01-18T06:40:49.257Z,0.77
2019-01-18T06:43:18.848Z,0.76
2019-01-18T06:45:48.266Z,0.81
2019-01-18T06:48:21.460Z,0.85
2019-01-18T06:50:51.099Z,0.75
2019-01-18T06:53:20.817Z,0.75
2019-01-18T06:55:50.971Z,0.83
2019-01-18T06:58:20.576Z,0.90
2019-01-18T07:00:50.125Z,0.86
2019-01-18T07:03:19.571Z,0.75
2019-01-18T07:05:50.318Z,0.65
2019-01-18T07:08:19.584Z,0.69
2019-01-18T07:10:48.841Z,0.62
2019-01-18T07:13:18.153Z,0.70
2019-01-18T07:15:47.436Z,0.54
2019-01-18T07:18:16.704Z,0.68
2019-01-18T07:20:45.946Z,0.52
2019-01-18T07:23:15.233Z,0.62
2019-01-18T07:25:44.512Z,0.59
2019-01-18T07:28:13.766Z,0.67
2019-01-18T07:30:43.874Z,0.73
2019-01-18T07:33:15.139Z,0.75
2019-01-18T07:35:44.431Z,0.74
2019-01-18T07:38:13.675Z,0.77
2019-01-18T07:40:42.955Z,0.79
2019-01-18T07:43:12.218Z,0.80
2019-01-18T07:45:41.495Z,0.85
2019-01-18T07:48:10.789Z,0.73
2019-01-18T07:50:40.048Z,0.89
2019-01-18T07:53:09.443Z,0.83
2019-01-18T07:55:38.697Z,0.71
2019-01-18T07:58:08.007Z,0.70
2019-01-18T08:00:37.293Z,0.66
2019-01-18T08:03:06.558Z,0.68
2019-01-18T08:05:35.822Z,0.72
2019-01-18T08:08:05.707Z,0.66
2019-01-18T08:10:34.984Z,0.78
2019-01-18T08:13:05.050Z,0.73
2019-01-18T08:15:34.354Z,0.97
2019-01-18T08:18:03.611Z,1.00
2019-01-18T08:20:32.862Z,1.06
2019-01-18T08:23:02.998Z,1.09
2019-01-18T08:25:32.259Z,1.00
2019-01-18T08:28:02.224Z,1.05
2019-01-18T08:30:32.326Z,0.86
2019-01-18T08:33:01.611Z,1.06
2019-01-18T08:35:31.772Z,1.15
2019-01-18T08:38:01.266Z,1.10
2019-01-18T08:40:32.969Z,1.08
2019-01-18T08:43:02.320Z,1.13
2019-01-18T08:45:43.456Z,1.19
2019-01-18T08:48:12.726Z,1.28
2019-01-18T08:50:42.738Z,1.36
2019-01-18T08:53:12.024Z,1.35
2019-01-18T08:55:41.274Z,1.24
2019-01-18T08:58:10.557Z,1.25
2019-01-18T09:00:39.815Z,1.48
2019-01-18T09:03:09.202Z,1.56
2019-01-18T09:05:38.504Z,1.80
2019-01-18T09:08:07.763Z,1.72
2019-01-18T09:10:41.169Z,1.81
2019-01-18T09:13:13.843Z,1.73
2019-01-18T09:15:46.236Z,1.79
2019-01-18T09:18:15.607Z,1.97
2019-01-18T09:20:44.942Z,1.97
2019-01-18T09:23:14.201Z,2.18
2019-01-18T09:25:43.494Z,2.20
2019-01-18T09:28:12.743Z,2.17
2019-01-18T09:30:41.995Z,2.23
2019-01-18T09:33:11.310Z,2.57
2019-01-18T09:35:41.579Z,2.76
2019-01-18T09:38:17.851Z,3.26
2019-01-18T09:40:46.988Z,3.08
2019-01-18T09:43:17.719Z,3.05
2019-01-18T09:45:46.995Z,2.89
2019-01-18T09:48:16.245Z,2.98
2019-01-18T09:50:45.519Z,3.15
2019-01-18T09:53:14.909Z,3.11
2019-01-18T09:55:44.193Z,2.76
2019-01-18T09:58:13.453Z,3.01
2019-01-18T10:00:42.811Z,3.00
2019-01-18T10:03:12.085Z,3.13
2019-01-18T10:05:41.345Z,3.58
2019-01-18T10:08:12.115Z,4.10
2019-01-18T10:10:41.781Z,4.84
2019-01-18T10:13:11.042Z,5.18
2019-01-18T10:15:45.411Z,5.82
2019-01-18T10:18:15.215Z,5.32
2019-01-18T10:20:44.517Z,5.20
2019-01-18T10:23:13.790Z,5.65
2019-01-18T10:25:43.087Z,6.06
2019-01-18T10:28:13.782Z,7.05
2019-01-18T10:30:44.354Z,7.42
2019-01-18T10:33:13.730Z,6.66
2019-01-18T10:35:43.018Z,5.02
2019-01-18T10:38:12.385Z,5.36
2019-01-18T10:40:41.639Z,5.83
2019-01-18T10:43:10.915Z,5.31
2019-01-18T10:45:40.275Z,5.04
2019-01-18T10:48:09.555Z,4.72
2019-01-18T10:50:38.807Z,4.16
2019-01-18T10:53:08.104Z,3.76
2019-01-18T10:55:37.347Z,3.66
2019-01-18T10:58:06.600Z,3.72
2019-01-18T11:00:37.371Z,3.38
2019-01-18T11:03:07.169Z,4.06
2019-01-18T11:05:36.454Z,4.41
2019-01-18T11:08:05.727Z,4.49
2019-01-18T11:10:35.149Z,4.03
2019-01-18T11:13:04.509Z,4.73
2019-01-18T11:15:35.939Z,4.34
2019-01-18T11:18:05.929Z,4.17
2019-01-18T11:20:45.568Z,3.68
2019-01-18T11:23:14.850Z,2.97
2019-01-18T11:25:44.204Z,2.99
2019-01-18T11:28:13.581Z,2.84
2019-01-18T11:30:42.837Z,3.18
2019-01-18T11:33:12.117Z,3.37
2019-01-18T11:35:41.484Z,3.35
2019-01-18T11:38:10.861Z,3.09
2019-01-18T11:40:40.162Z,3.36
2019-01-18T11:43:09.450Z,3.11
2019-01-18T11:45:38.722Z,3.20
2019-01-18T11:48:08.992Z,3.11
2019-01-18T11:50:38.309Z,2.79
2019-01-18T11:53:07.556Z,2.72
2019-01-18T11:55:36.853Z,2.99
2019-01-18T11:58:06.683Z,2.87
2019-01-18T12:00:37.923Z,2.85
2019-01-18T12:03:07.208Z,2.67
2019-01-18T12:05:36.642Z,2.75
2019-01-18T12:08:06.179Z,2.49
2019-01-18T12:10:35.489Z,2.57
2019-01-18T12:13:05.168Z,2.76
2019-01-18T12:15:34.461Z,3.01
2019-01-18T12:18:03.807Z,2.95
2019-01-18T12:20:37.252Z,2.60
2019-01-18T12:23:07.521Z,2.49
2019-01-18T12:25:36.900Z,2.33
2019-01-18T12:28:06.840Z,2.20
2019-01-18T12:30:37.370Z,2.20
2019-01-18T12:33:06.721Z,2.78
2019-01-18T12:35:36.002Z,3.81
2019-01-18T12:38:05.704Z,5.04
2019-01-18T12:40:35.063Z,6.50
2019-01-18T12:43:04.410Z,7.40
2019-01-18T12:45:35.084Z,6.99
2019-01-18T12:48:05.534Z,7.80
2019-01-18T12:50:39.928Z,7.94
2019-01-18T12:53:09.959Z,8.09
2019-01-18T12:55:39.333Z,7.81
2019-01-18T12:58:08.781Z,7.71
2019-01-18T13:00:38.138Z,8.10
2019-01-18T13:03:08.435Z,6.88
2019-01-18T13:05:56.387Z,5.75
2019-01-18T13:08:25.650Z,6.10
2019-01-18T13:10:54.936Z,7.43
2019-01-18T13:13:24.207Z,8.55
2019-01-18T13:16:26.280Z,8.14
2019-01-18T13:18:58.517Z,5.95
2019-01-18T13:21:27.821Z,4.87
2019-01-18T13:23:57.089Z,5.58
2019-01-18T13:26:26.372Z,6.47
2019-01-18T13:28:55.650Z,6.05
2019-01-18T13:31:25.102Z,5.85
2019-01-18T13:33:54.418Z,5.72
2019-01-18T13:36:23.726Z,5.54
2019-01-18T13:38:53.018Z,5.06
2019-01-18T13:41:22.490Z,4.97
2019-01-18T13:43:51.746Z,5.01
2019-01-18T13:46:21.152Z,4.63
2019-01-18T13:48:51.521Z,4.60
2019-01-18T13:51:21.017Z,4.15
2019-01-18T13:53:50.325Z,4.61
2019-01-18T13:56:19.591Z,4.51
2019-01-18T13:58:48.877Z,4.34
2019-01-18T14:01:19.252Z,4.27
2019-01-18T14:03:48.522Z,4.09
2019-01-18T14:06:17.794Z,4.26
2019-01-18T14:08:47.077Z,4.41
2019-01-18T14:11:17.820Z,4.15
2019-01-18T14:13:47.147Z,3.92
2019-01-18T14:16:16.764Z,3.94
2019-01-18T14:18:46.103Z,3.79
2019-01-18T14:21:15.437Z,3.83
2019-01-18T14:23:44.708Z,3.72
2019-01-18T14:26:13.978Z,4.19
2019-01-18T14:28:43.247Z,4.11
2019-01-18T14:31:12.551Z,4.19
2019-01-18T14:33:41.838Z,3.92
2019-01-18T14:36:14.666Z,3.81
2019-01-18T14:39:04.258Z,3.48
2019-01-18T14:41:33.580Z,3.64
2019-01-18T14:44:02.871Z,3.23
2019-01-18T14:46:32.162Z,3.06
2019-01-18T14:49:01.416Z,3.16
2019-01-18T14:51:30.781Z,3.37
2019-01-18T14:54:00.080Z,3.17
2019-01-18T14:56:29.381Z,3.18
2019-01-18T14:58:58.684Z,3.06
2019-01-18T15:01:27.926Z,3.01
2019-01-18T15:03:57.195Z,2.99
2019-01-18T15:06:27.930Z,2.95
2019-01-18T15:08:57.186Z,2.82
2019-01-18T15:11:26.469Z,2.78
2019-01-18T15:13:55.742Z,2.66
2019-01-18T15:16:25.094Z,2.61
2019-01-18T15:18:54.376Z,2.59
2019-01-18T15:21:23.632Z,2.48
2019-01-18T15:23:52.944Z,2.48
2019-01-18T15:26:22.202Z,2.25
2019-01-18T15:28:51.475Z,2.16
2019-01-18T15:31:20.755Z,2.00
2019-01-18T15:33:50.011Z,1.89
2019-01-18T15:36:19.282Z,1.95
2019-01-18T15:38:48.569Z,2.03
2019-01-18T15:41:17.842Z,2.04
2019-01-18T15:43:48.597Z,1.96
2019-01-18T15:46:17.874Z,1.89
2019-01-18T15:48:47.295Z,1.77
2019-01-18T15:51:16.577Z,1.60
2019-01-18T15:53:47.664Z,1.74
2019-01-18T15:56:17.075Z,1.72
2019-01-18T15:58:46.339Z,1.50
2019-01-18T16:01:15.674Z,1.54
2019-01-18T16:03:45.010Z,1.30
2019-01-18T16:06:14.316Z,1.08
2019-01-18T16:08:45.370Z,1.04
2019-01-18T16:11:14.624Z,0.99
2019-01-18T16:13:46.704Z,0.92
2019-01-18T16:16:59.724Z,0.89
2019-01-18T16:19:29.128Z,0.93
2019-01-18T16:21:58.502Z,0.83
2019-01-18T16:24:27.853Z,0.77
2019-01-18T16:26:58.729Z,0.72
2019-01-18T16:29:28.105Z,0.62
2019-01-18T16:31:58.758Z,0.64
2019-01-18T16:34:28.071Z,0.65
2019-01-18T16:36:57.320Z,0.57
2019-01-18T16:39:28.118Z,0.67
2019-01-18T16:41:57.434Z,0.72
2019-01-18T16:44:26.792Z,0.66
2019-01-18T16:46:56.140Z,0.52
2019-01-18T16:49:25.397Z,0.46
2019-01-18T16:51:54.685Z,0.35
2019-01-18T16:54:23.990Z,0.44
2019-01-18T16:56:56.367Z,0.42
2019-01-18T16:59:26.219Z,0.37
2019-01-18T17:01:55.535Z,0.26
2019-01-18T17:04:24.828Z,0.31
2019-01-18T17:06:54.926Z,0.27
2019-01-18T17:09:24.621Z,0.26
2019-01-18T17:11:53.887Z,0.22
2019-01-18T17:14:24.995Z,0.19
2019-01-18T17:16:55.397Z,0.28
2019-01-18T17:19:24.667Z,0.43
2019-01-18T17:21:54.172Z,0.28
2019-01-18T17:24:23.491Z,0.10
2019-01-18T17:26:52.771Z,0.15
2019-01-18T17:29:22.143Z,0.15
2019-01-18T17:31:51.415Z,0.27
2019-01-18T17:34:20.692Z,0.38
2019-01-18T17:37:17.104Z,0.24
2019-01-18T17:39:57.524Z,0.22
2019-01-18T17:42:43.544Z,0.23
2019-01-18T17:45:49.876Z,0.08
2019-01-18T17:49:01.260Z,-0.01
2019-01-18T17:51:59.019Z,0.04
2019-01-18T17:54:44.267Z,0.05
2019-01-18T17:58:09.640Z,0.04
2019-01-18T18:01:04.032Z,-0.01
2019-01-18T18:04:16.268Z,0.00
2019-01-18T18:06:51.822Z,-0.03
2019-01-18T18:09:47.637Z,0.09
2019-01-18T18:12:53.440Z,0.02
2019-01-18T18:16:04.096Z,-0.04
2019-01-18T18:18:52.993Z,-0.10
2019-01-18T18:22:13.059Z,-0.01
2019-01-18T18:25:12.399Z,-0.05
2019-01-18T18:28:21.971Z,-0.03
2019-01-18T18:31:17.084Z,-0.16
2019-01-18T18:34:30.558Z,-0.19
2019-01-18T18:37:13.213Z,-0.18
2019-01-18T18:40:19.530Z,-0.23
2019-01-18T18:43:22.113Z,-0.12
2019-01-18T18:46:29.478Z,-0.10
2019-01-18T18:49:29.809Z,-0.26
2019-01-18T18:53:04.278Z,-0.19
2019-01-18T18:56:04.811Z,-0.39
2019-01-18T18:59:20.913Z,-0.30
2019-01-18T19:02:35.044Z,-0.34
2019-01-18T19:05:30.695Z,-0.37
2019-01-18T19:08:46.761Z,-0.21
2019-01-18T19:11:52.029Z,-0.31
2019-01-18T19:15:08.730Z,-0.30
2019-01-18T19:18:07.872Z,-0.37
2019-01-18T19:21:23.060Z,-0.32
2019-01-18T19:24:45.094Z,-0.37
2019-01-18T19:27:56.510Z,-0.32
2019-01-18T19:31:22.154Z,-0.32
2019-01-18T19:34:17.325Z,-0.50
2019-01-18T19:37:28.754Z,-0.51
2019-01-18T19:40:38.571Z,-0.48
2019-01-18T19:43:57.638Z,-0.55
2019-01-18T19:46:52.729Z,-0.51
2019-01-18T19:49:51.064Z,-0.67
2019-01-18T19:53:07.492Z,-0.64
2019-01-18T19:56:05.202Z,-0.65
2019-01-18T19:59:14.649Z,-0.76
2019-01-18T20:02:20.741Z,-0.91
2019-01-18T20:05:30.312Z,-0.86
2019-01-18T20:08:42.979Z,-0.82
2019-01-18T20:11:40.241Z,-0.75
2019-01-18T20:14:50.226Z,-0.66
2019-01-18T20:17:34.344Z,-0.69
2019-01-18T20:20:53.189Z,-0.86
2019-01-18T20:24:19.096Z,-0.73
2019-01-18T20:27:14.117Z,-0.81
2019-01-18T20:30:20.677Z,-0.92
2019-01-18T20:33:20.363Z,-1.01
2019-01-18T20:36:30.580Z,-0.92
2019-01-18T20:39:28.800Z,-1.04
2019-01-18T20:42:28.290Z,-0.85
2019-01-18T20:45:17.148Z,-1.16
2019-01-18T20:48:15.494Z,-1.18
2019-01-18T20:51:06.419Z,-1.14
2019-01-18T20:54:16.582Z,-1.14
2019-01-18T20:57:12.933Z,-1.10
2019-01-18T20:59:59.386Z,-1.02
2019-01-18T21:02:57.400Z,-1.04
2019-01-18T21:05:57.833Z,-1.11
2019-01-18T21:09:14.179Z,-1.06
2019-01-18T21:12:02.576Z,-1.28
2019-01-18T21:15:14.503Z,-1.21
2019-01-18T21:18:21.879Z,-1.38
2019-01-18T21:21:38.155Z,-1.44
2019-01-18T21:24:40.092Z,-1.37
2019-01-18T21:27:39.956Z,-1.27
2019-01-18T21:31:01.495Z,-1.45
2019-01-18T21:34:23.590Z,-1.70
2019-01-18T21:37:22.639Z,-1.42
2019-01-18T21:40:31.760Z,-1.51
2019-01-18T21:43:21.834Z,-1.47
2019-01-18T21:46:53.700Z,-1.45
2019-01-18T21:49:39.195Z,-1.65
2019-01-18T21:52:46.576Z,-1.62
2019-01-18T21:55:25.112Z,-1.57
2019-01-18T21:58:35.372Z,-1.54
2019-01-18T22:01:49.596Z,-1.52
2019-01-18T22:05:09.031Z,-1.52
2019-01-18T22:08:04.455Z,-1.55
2019-01-18T22:11:05.623Z,-1.68
2019-01-18T22:14:22.358Z,-1.62
2019-01-18T22:17:31.863Z,-1.61
2019-01-18T22:20:38.480Z,-1.47
2019-01-18T22:23:29.404Z,-1.64
2019-01-18T22:26:30.858Z,-1.64
2019-01-18T22:29:50.440Z,-1.52
2019-01-18T22:32:57.855Z,-1.68
2019-01-18T22:36:12.503Z,-1.69
2019-01-18T22:39:00.669Z,-1.58
2019-01-18T22:42:14.783Z,-1.58
2019-01-18T22:44:57.171Z,-1.56
2019-01-18T22:48:08.311Z,-1.61
2019-01-18T22:51:23.372Z,-1.68
2019-01-18T22:54:22.906Z,-1.75
2019-01-18T22:57:39.419Z,-1.63
2019-01-18T23:01:06.251Z,-1.88
2019-01-18T23:04:27.706Z,-1.89
2019-01-18T23:07:34.285Z,-1.80
2019-01-18T23:10:46.559Z,-1.90
2019-01-18T23:13:51.745Z,-1.90
2019-01-18T23:16:59.597Z,-1.95
2019-01-18T23:20:25.473Z,-2.12
2019-01-18T23:23:57.040Z,-1.99
2019-01-18T23:27:07.931Z,-2.20
2019-01-18T23:29:47.932Z,-2.22
2019-01-18T23:32:37.109Z,-2.07
2019-01-18T23:35:28.302Z,-2.19
2019-01-18T23:38:31.004Z,-2.16
2019-01-18T23:41:27.798Z,-2.12
2019-01-18T23:44:31.941Z,-2.20
2019-01-18T23:47:26.237Z,-2.07
2019-01-18T23:50:12.481Z,-2.08
2019-01-18T23:53:09.474Z,-2.22
2019-01-18T23:56:22.604Z,-2.24
2019-01-18T23:59:08.394Z,-2.39
